createdAt,value
2019-06-01T00:00:44.861Z,96468.59
2019-06-01T00:03:32.414Z,96461.69
2019-06-01T00:06:19.782Z,96464.17
2019-06-01T00:09:07.995Z,96465.16
2019-06-01T00:11:55.377Z,96466.63
2019-06-01T00:14:43.665Z,96461.06
2019-06-01T00:17:31.425Z,96459.83
2019-06-01T00:20:19.504Z,96458.69
2019-06-01T00:23:07.246Z,96454.02
2019-06-01T00:25:55.625Z,96456.14
2019-06-01T00:28:43.729Z,96453.41
2019-06-01T00:31:31.693Z,96452.91
2019-06-01T00:34:19.465Z,96452.13
2019-06-01T00:37:07.122Z,96455.49
2019-06-01T00:39:54.579Z,96452.62
2019-06-01T00:42:42.234Z,96446.84
2019-06-01T00:45:29.720Z,96451.49
2019-06-01T00:48:17.332Z,96450.03
2019-06-01T00:51:05.127Z,96453.34
2019-06-01T00:53:53.584Z,96445.30
2019-06-01T00:56:41.481Z,96446.21
2019-06-01T00:59:29.052Z,96445.75
2019-06-01T01:02:16.816Z,96441.53
2019-06-01T01:05:13.388Z,96446.66
2019-06-01T01:08:01.153Z,96438.04
2019-06-01T01:10:49.126Z,96436.92
2019-06-01T01:13:36.356Z,96439.67
2019-06-01T01:16:23.760Z,96444.45
2019-06-01T01:19:11.212Z,96439.09
2019-06-01T01:21:59.255Z,96438.52
2019-06-01T01:24:46.849Z,96445.58
2019-06-01T01:27:34.915Z,96441.36
2019-06-01T01:30:22.250Z,96440.56
2019-06-01T01:33:09.911Z,96446.03
2019-06-01T01:35:57.800Z,96442.06
2019-06-01T01:38:44.957Z,96439.55
2019-06-01T01:41:33.386Z,96435.13
2019-06-01T01:44:21.032Z,96434.68
2019-06-01T01:47:08.442Z,96441.91
2019-06-01T01:49:56.138Z,96438.05
2019-06-01T01:52:43.735Z,96438.27
2019-06-01T01:55:31.648Z,96435.34
2019-06-01T01:58:19.366Z,96427.37
2019-06-01T02:01:21.626Z,96436.45
2019-06-01T02:03:57.362Z,96430.12
2019-06-01T02:06:44.801Z,96433.51
2019-06-01T02:09:32.400Z,96429.16
2019-06-01T02:12:19.816Z,96430.28
2019-06-01T02:15:07.767Z,96427.50
2019-06-01T02:17:56.013Z,96435.95
2019-06-01T02:20:43.441Z,96433.22
2019-06-01T02:23:30.805Z,96431.16
2019-06-01T02:26:18.211Z,96427.27
2019-06-01T02:29:05.800Z,96427.93
2019-06-01T02:31:54.682Z,96419.28
2019-06-01T02:34:42.066Z,96417.72
2019-06-01T02:37:29.761Z,96414.52
2019-06-01T02:40:20.168Z,96420.91
2019-06-01T02:43:07.573Z,96413.66
2019-06-01T02:45:56.306Z,96407.70
2019-06-01T02:48:44.012Z,96417.31
2019-06-01T02:51:31.419Z,96419.98
2019-06-01T02:54:18.891Z,96417.45
2019-06-01T02:57:06.565Z,96423.33
2019-06-01T02:59:54.278Z,96421.00
2019-06-01T03:02:41.754Z,96415.22
2019-06-01T03:05:29.269Z,96415.09
2019-06-01T03:08:17.820Z,96416.74
2019-06-01T03:11:07.994Z,96416.39
2019-06-01T03:13:56.494Z,96422.44
2019-06-01T03:16:44.236Z,96424.73
2019-06-01T03:19:32.359Z,96420.59
2019-06-01T03:22:20.679Z,96424.02
2019-06-01T03:25:08.136Z,96426.05
2019-06-01T03:27:57.056Z,96422.31
2019-06-01T03:30:46.047Z,96425.68
2019-06-01T03:33:34.262Z,96417.55
2019-06-01T03:36:21.618Z,96419.81
2019-06-01T03:39:08.950Z,96424.26
2019-06-01T03:41:56.313Z,96421.96
2019-06-01T03:44:43.903Z,96421.53
2019-06-01T03:47:31.268Z,96422.86
2019-06-01T03:50:18.769Z,96425.80
2019-06-01T03:53:06.179Z,96431.02
2019-06-01T03:55:53.955Z,96429.66
2019-06-01T03:58:41.673Z,96423.08
2019-06-01T04:01:29.598Z,96432.16
2019-06-01T04:04:17.433Z,96429.19
2019-06-01T04:07:06.321Z,96434.53
2019-06-01T04:09:54.017Z,96438.07
2019-06-01T04:12:41.957Z,96435.58
2019-06-01T04:15:29.294Z,96435.45
2019-06-01T04:18:17.055Z,96443.99
2019-06-01T04:21:05.926Z,96436.01
2019-06-01T04:23:55.039Z,96434.05
2019-06-01T04:26:43.078Z,96438.97
2019-06-01T04:29:30.575Z,96445.17
2019-06-01T04:32:17.905Z,96436.30
2019-06-01T04:35:07.220Z,96437.66
2019-06-01T04:37:54.746Z,96442.45
2019-06-01T04:40:41.989Z,96439.97
2019-06-01T04:43:29.115Z,96441.83
2019-06-01T04:46:16.529Z,96435.91
2019-06-01T04:49:04.499Z,96440.20
2019-06-01T04:51:52.129Z,96435.88
2019-06-01T04:54:39.482Z,96432.36
2019-06-01T04:57:26.946Z,96438.36
2019-06-01T05:00:25.723Z,96438.64
2019-06-01T05:03:07.056Z,96439.58
2019-06-01T05:05:53.674Z,96442.30
2019-06-01T05:08:41.363Z,96447.11
2019-06-01T05:11:28.894Z,96452.83
2019-06-01T05:14:16.737Z,96449.13
2019-06-01T05:17:04.047Z,96448.08
2019-06-01T05:19:51.338Z,96452.58
2019-06-01T05:22:38.980Z,96440.89
2019-06-01T05:25:28.947Z,96446.91
2019-06-01T05:28:17.454Z,96444.80
2019-06-01T05:31:05.550Z,96438.63
2019-06-01T05:33:53.209Z,96443.65
2019-06-01T05:36:40.693Z,96443.60
2019-06-01T05:39:28.342Z,96433.15
2019-06-01T05:42:16.910Z,96444.27
2019-06-01T05:45:04.914Z,96442.64
2019-06-01T05:47:52.488Z,96434.58
2019-06-01T05:50:39.751Z,96435.63
2019-06-01T05:53:27.182Z,96431.30
2019-06-01T05:56:15.078Z,96442.08
2019-06-01T05:59:02.726Z,96442.06
2019-06-01T06:01:50.287Z,96436.98
2019-06-01T06:04:37.865Z,96435.36
2019-06-01T06:07:25.767Z,96432.84
2019-06-01T06:10:16.032Z,96436.51
2019-06-01T06:13:03.821Z,96443.28
2019-06-01T06:15:50.827Z,96439.37
2019-06-01T06:18:38.509Z,96437.60
2019-06-01T06:21:25.909Z,96441.72
2019-06-01T06:24:14.255Z,96445.02
2019-06-01T06:27:01.694Z,96441.97
2019-06-01T06:29:49.780Z,96440.38
2019-06-01T06:32:37.249Z,96435.89
2019-06-01T06:35:25.057Z,96440.22
2019-06-01T06:40:35.006Z,96438.36
2019-06-01T06:43:31.248Z,96439.69
2019-06-01T06:46:12.243Z,96440.27
2019-06-01T06:48:59.273Z,96442.30
2019-06-01T06:51:47.108Z,96447.86
2019-06-01T06:54:35.595Z,96442.38
2019-06-01T06:57:24.213Z,96451.13
2019-06-01T07:00:13.164Z,96443.44
2019-06-01T07:03:00.595Z,96441.13
2019-06-01T07:05:48.230Z,96446.66
2019-06-01T07:08:35.724Z,96434.77
2019-06-01T07:11:23.520Z,96436.92
2019-06-01T07:14:10.825Z,96426.13
2019-06-01T07:16:58.513Z,96435.47
2019-06-01T07:19:46.071Z,96433.19
2019-06-01T07:22:33.185Z,96433.53
2019-06-01T07:25:21.743Z,96428.11
2019-06-01T07:28:09.336Z,96421.12
2019-06-01T07:31:00.074Z,96427.95
2019-06-01T07:33:47.522Z,96428.34
2019-06-01T07:36:34.891Z,96431.28
2019-06-01T07:39:22.655Z,96422.51
2019-06-01T07:42:10.173Z,96426.87
2019-06-01T07:44:57.606Z,96423.30
2019-06-01T07:47:45.182Z,96418.45
2019-06-01T07:50:33.994Z,96424.80
2019-06-01T07:53:21.049Z,96422.17
2019-06-01T07:56:08.525Z,96418.98
2019-06-01T07:58:55.750Z,96425.20
2019-06-01T08:01:43.204Z,96418.71
2019-06-01T08:04:50.809Z,96419.87
2019-06-01T08:07:21.166Z,96414.44
2019-06-01T08:10:10.189Z,96420.23
2019-06-01T08:12:57.282Z,96413.81
2019-06-01T08:15:44.756Z,96406.78
2019-06-01T08:18:32.356Z,96402.80
2019-06-01T08:21:20.315Z,96404.98
2019-06-01T08:24:07.757Z,96407.89
2019-06-01T08:26:55.298Z,96403.60
2019-06-01T08:29:43.038Z,96402.93
2019-06-01T08:32:30.786Z,96399.20
2019-06-01T08:35:18.329Z,96402.87
2019-06-01T08:38:05.685Z,96404.66
2019-06-01T08:40:53.131Z,96397.34
2019-06-01T08:43:40.463Z,96395.66
2019-06-01T08:46:27.933Z,96391.13
2019-06-01T08:49:14.954Z,96396.86
2019-06-01T08:52:02.378Z,96386.34
2019-06-01T08:54:50.125Z,96387.66
2019-06-01T08:57:37.772Z,96396.95
2019-06-01T09:00:26.340Z,96395.20
2019-06-01T09:03:13.838Z,96390.48
2019-06-01T09:06:01.219Z,96386.22
2019-06-01T09:08:48.745Z,96389.47
2019-06-01T09:11:38.979Z,96383.20
2019-06-01T09:14:27.221Z,96384.53
2019-06-01T09:17:18.525Z,96388.84
2019-06-01T09:20:05.305Z,96391.22
2019-06-01T09:22:52.786Z,96383.74
2019-06-01T09:25:40.590Z,96385.52
2019-06-01T09:28:28.188Z,96383.36
2019-06-01T09:31:15.457Z,96378.23
2019-06-01T09:34:02.578Z,96376.81
2019-06-01T09:36:50.318Z,96389.65
2019-06-01T09:39:38.154Z,96381.72
2019-06-01T09:42:26.708Z,96380.04
2019-06-01T09:45:14.953Z,96377.77
2019-06-01T09:48:02.751Z,96381.97
2019-06-01T09:50:50.378Z,96380.63
2019-06-01T09:53:38.158Z,96378.06
2019-06-01T09:56:25.844Z,96374.01
2019-06-01T09:59:14.434Z,96379.25
2019-06-01T10:02:01.493Z,96381.81
2019-06-01T10:04:48.557Z,96378.31
2019-06-01T10:07:37.035Z,96374.74
2019-06-01T10:10:24.872Z,96372.67
2019-06-01T10:13:12.371Z,96367.14
2019-06-01T10:15:59.653Z,96369.20
2019-06-01T10:18:47.519Z,96368.04
2019-06-01T10:21:36.145Z,96372.31
2019-06-01T10:24:23.569Z,96373.75
2019-06-01T10:27:11.026Z,96373.45
2019-06-01T10:29:58.376Z,96376.08
2019-06-01T10:32:45.865Z,96370.93
2019-06-01T10:35:35.011Z,96369.23
2019-06-01T10:38:22.791Z,96366.72
2019-06-01T10:41:10.285Z,96355.69
2019-06-01T10:43:57.808Z,96355.09
2019-06-01T10:46:45.407Z,96354.09
2019-06-01T10:49:33.799Z,96351.67
2019-06-01T10:52:21.665Z,96356.45
2019-06-01T10:55:09.246Z,96345.50
2019-06-01T10:57:56.852Z,96344.20
2019-06-01T11:00:50.623Z,96342.03
2019-06-01T11:03:34.644Z,96341.32
2019-06-01T11:06:36.313Z,96347.38
2019-06-01T11:09:11.049Z,96346.11
2019-06-01T11:11:58.488Z,96342.37
2019-06-01T11:14:45.977Z,96339.73
2019-06-01T11:17:33.334Z,96332.22
2019-06-01T11:20:21.217Z,96328.70
2019-06-01T11:23:09.084Z,96328.17
2019-06-01T11:25:58.830Z,96334.59
2019-06-01T11:28:46.546Z,96325.24
2019-06-01T11:31:33.982Z,96326.06
2019-06-01T11:34:21.370Z,96331.66
2019-06-01T11:37:09.229Z,96322.95
2019-06-01T11:39:57.080Z,96310.71
2019-06-01T11:42:45.130Z,96313.06
2019-06-01T11:45:32.573Z,96307.69
2019-06-01T11:48:21.026Z,96311.14
2019-06-01T11:51:08.729Z,96314.10
2019-06-01T11:53:57.428Z,96303.20
2019-06-01T11:56:45.526Z,96304.06
2019-06-01T11:59:33.021Z,96298.88
2019-06-01T12:02:20.192Z,96298.32
2019-06-01T12:05:09.173Z,96295.48
2019-06-01T12:07:56.325Z,96290.42
2019-06-01T12:10:43.456Z,96289.72
2019-06-01T12:13:30.766Z,96285.31
2019-06-01T12:16:18.444Z,96286.63
2019-06-01T12:19:06.341Z,96282.66
2019-06-01T12:21:53.653Z,96270.22
2019-06-01T12:24:41.263Z,96277.23
2019-06-01T12:27:28.829Z,96276.41
2019-06-01T12:30:16.632Z,96271.73
2019-06-01T12:33:04.441Z,96268.25
2019-06-01T12:35:53.890Z,96260.86
2019-06-01T12:38:54.179Z,96267.13
2019-06-01T12:41:41.610Z,96255.64
2019-06-01T12:44:28.980Z,96252.21
2019-06-01T12:47:16.784Z,96253.11
2019-06-01T12:50:04.571Z,96254.00
2019-06-01T12:52:52.788Z,96248.38
2019-06-01T12:55:40.544Z,96243.50
2019-06-01T12:58:28.167Z,96239.48
2019-06-01T13:01:15.814Z,96245.36
2019-06-01T13:04:03.402Z,96239.23
2019-06-01T13:06:52.546Z,96232.91
2019-06-01T13:09:39.764Z,96232.31
2019-06-01T13:12:27.408Z,96222.69
2019-06-01T13:15:14.983Z,96218.38
2019-06-01T13:18:02.880Z,96214.05
2019-06-01T13:20:55.769Z,96224.41
2019-06-01T13:23:45.494Z,96228.15
2019-06-01T13:26:33.085Z,96226.09
2019-06-01T13:29:23.590Z,96221.86
2019-06-01T13:32:10.954Z,96220.37
2019-06-01T13:34:58.771Z,96210.80
2019-06-01T13:37:46.677Z,96204.36
2019-06-01T13:40:36.483Z,96201.72
2019-06-01T13:43:23.968Z,96199.13
2019-06-01T13:46:11.632Z,96202.56
2019-06-01T13:48:58.955Z,96191.78
2019-06-01T13:51:47.961Z,96193.36
2019-06-01T13:54:35.955Z,96194.45
2019-06-01T13:57:24.090Z,96186.45
2019-06-01T14:00:15.557Z,96193.85
2019-06-01T14:03:00.901Z,96185.52
2019-06-01T14:05:48.870Z,96177.65
2019-06-01T14:08:36.356Z,96180.02
2019-06-01T14:11:24.042Z,96185.75
2019-06-01T14:14:11.994Z,96176.11
2019-06-01T14:16:59.575Z,96173.00
2019-06-01T14:19:47.609Z,96167.99
2019-06-01T14:22:35.940Z,96175.49
2019-06-01T14:25:23.260Z,96172.16
2019-06-01T14:28:12.691Z,96174.90
2019-06-01T14:31:00.094Z,96169.41
2019-06-01T14:33:48.379Z,96167.11
2019-06-01T14:36:36.081Z,96162.06
2019-06-01T14:39:23.389Z,96168.71
2019-06-01T14:42:10.453Z,96165.28
2019-06-01T14:44:58.418Z,96167.70
2019-06-01T14:47:47.173Z,96163.09
2019-06-01T14:50:34.584Z,96163.75
2019-06-01T14:53:22.428Z,96155.44
2019-06-01T14:56:09.758Z,96157.28
2019-06-01T14:58:58.395Z,96157.25
2019-06-01T15:01:48.034Z,96152.47
2019-06-01T15:04:35.279Z,96155.89
2019-06-01T15:07:23.064Z,96152.34
2019-06-01T15:10:11.470Z,96155.73
2019-06-01T15:13:02.907Z,96147.86
2019-06-01T15:15:49.345Z,96149.55
2019-06-01T15:18:37.621Z,96145.64
2019-06-01T15:21:24.689Z,96139.83
2019-06-01T15:24:12.031Z,96138.14
2019-06-01T15:26:59.530Z,96144.55
2019-06-01T15:29:46.930Z,96134.41
2019-06-01T15:32:34.223Z,96133.86
2019-06-01T15:35:21.616Z,96134.89
2019-06-01T15:38:09.162Z,96133.91
2019-06-01T15:40:58.200Z,96134.70
2019-06-01T15:43:46.224Z,96135.48
2019-06-01T15:46:34.365Z,96137.19
2019-06-01T15:49:22.107Z,96135.66
2019-06-01T15:52:09.766Z,96127.50
2019-06-01T15:54:58.302Z,96127.32
2019-06-01T15:57:46.353Z,96130.76
2019-06-01T16:00:33.735Z,96131.71
2019-06-01T16:03:21.057Z,96117.14
2019-06-01T16:06:08.575Z,96117.51
2019-06-01T16:08:57.142Z,96116.59
2019-06-01T16:11:45.128Z,96113.30
2019-06-01T16:14:32.573Z,96115.03
2019-06-01T16:17:20.066Z,96108.08
2019-06-01T16:20:10.555Z,96109.47
2019-06-01T16:22:58.228Z,96109.55
2019-06-01T16:25:56.234Z,96111.63
2019-06-01T16:28:35.033Z,96105.96
2019-06-01T16:31:22.606Z,96102.81
2019-06-01T16:34:09.894Z,96108.41
2019-06-01T16:36:57.408Z,96098.98
2019-06-01T16:39:58.297Z,96102.45
2019-06-01T16:42:34.263Z,96099.83
2019-06-01T16:45:21.527Z,96098.03
2019-06-01T16:48:09.001Z,96103.70
2019-06-01T16:50:57.546Z,96103.22
2019-06-01T16:53:45.107Z,96098.14
2019-06-01T16:56:32.480Z,96103.84
2019-06-01T16:59:19.986Z,96090.27
2019-06-01T17:02:07.993Z,96091.99
2019-06-01T17:04:56.534Z,96099.53
2019-06-01T17:07:43.868Z,96095.93
2019-06-01T17:10:31.320Z,96099.20
2019-06-01T17:13:19.300Z,96097.27
2019-06-01T17:16:07.213Z,96097.22
2019-06-01T17:18:54.874Z,96094.20
2019-06-01T17:21:41.941Z,96092.81
2019-06-01T17:24:31.657Z,96095.77
2019-06-01T17:27:18.961Z,96086.15
2019-06-01T17:30:10.481Z,96088.41
2019-06-01T17:32:56.297Z,96088.19
2019-06-01T17:35:44.098Z,96088.19
2019-06-01T17:38:31.440Z,96092.32
2019-06-01T17:41:18.924Z,96091.18
2019-06-01T17:44:06.842Z,96090.75
2019-06-01T17:46:54.268Z,96085.63
2019-06-01T17:49:41.659Z,96088.98
2019-06-01T17:52:29.414Z,96085.88
2019-06-01T17:55:33.367Z,96089.17
2019-06-01T17:58:20.922Z,96084.51
2019-06-01T18:01:09.925Z,96093.41
2019-06-01T18:03:57.684Z,96089.94
2019-06-01T18:06:46.175Z,96089.59
2019-06-01T18:12:10.138Z,96090.98
2019-06-01T18:14:58.414Z,96090.25
2019-06-01T18:17:45.941Z,96088.35
2019-06-01T18:20:33.481Z,96095.99
2019-06-01T18:23:20.939Z,96086.13
2019-06-01T18:26:09.094Z,96087.18
2019-06-01T18:28:56.537Z,96087.55
2019-06-01T18:31:44.088Z,96083.70
2019-06-01T18:34:31.374Z,96078.78
2019-06-01T18:37:18.894Z,96079.88
2019-06-01T18:40:07.779Z,96071.56
2019-06-01T18:42:59.952Z,96077.57
2019-06-01T18:45:47.841Z,96067.17
2019-06-01T18:48:35.610Z,96072.05
2019-06-01T18:51:23.398Z,96078.91
2019-06-01T18:54:11.304Z,96075.84
2019-06-01T18:57:09.657Z,96079.64
2019-06-01T18:59:47.957Z,96071.38
2019-06-01T19:02:35.368Z,96072.66
2019-06-01T19:05:22.775Z,96071.72
2019-06-01T19:08:11.620Z,96073.53
2019-06-01T19:10:59.285Z,96075.40
2019-06-01T19:13:47.181Z,96071.28
2019-06-01T19:16:34.469Z,96071.67
2019-06-01T19:19:22.408Z,96074.30
2019-06-01T19:22:10.410Z,96075.11
2019-06-01T19:24:57.753Z,96080.50
2019-06-01T19:27:45.267Z,96081.28
2019-06-01T19:30:35.507Z,96077.59
2019-06-01T19:33:23.225Z,96090.43
2019-06-01T19:36:11.092Z,96088.46
2019-06-01T19:38:59.462Z,96086.91
2019-06-01T19:41:46.858Z,96083.56
2019-06-01T19:44:36.670Z,96089.75
2019-06-01T19:47:22.939Z,96094.72
2019-06-01T19:50:10.742Z,96100.05
2019-06-01T19:52:57.942Z,96094.13
2019-06-01T19:55:45.805Z,96100.08
2019-06-01T19:58:33.498Z,96094.38
2019-06-01T20:01:20.830Z,96101.88
2019-06-01T20:04:08.560Z,96107.64
2019-06-01T20:06:55.738Z,96107.45
2019-06-01T20:09:43.573Z,96106.22
2019-06-01T20:12:32.303Z,96109.42
2019-06-01T20:15:19.750Z,96109.42
2019-06-01T20:18:07.196Z,96105.68
2019-06-01T20:20:54.530Z,96105.73
2019-06-01T20:23:42.232Z,96102.56
2019-06-01T20:26:40.368Z,96107.49
2019-06-01T20:29:19.768Z,96100.39
2019-06-01T20:32:07.194Z,96110.30
2019-06-01T20:34:54.928Z,96109.91
2019-06-01T20:37:42.514Z,96109.12
2019-06-01T20:40:30.181Z,96116.43
2019-06-01T20:43:18.722Z,96111.50
2019-06-01T20:46:06.430Z,96113.11
2019-06-01T20:48:53.758Z,96112.48
2019-06-01T20:51:43.483Z,96109.95
2019-06-01T20:54:31.116Z,96118.20
2019-06-01T20:57:19.608Z,96118.59
2019-06-01T21:00:08.189Z,96123.52
2019-06-01T21:02:55.747Z,96127.23
2019-06-01T21:05:43.069Z,96123.66
2019-06-01T21:08:30.789Z,96126.81
2019-06-01T21:11:18.278Z,96129.13
2019-06-01T21:14:05.863Z,96132.67
2019-06-01T21:16:53.631Z,96130.70
2019-06-01T21:19:41.622Z,96129.64
2019-06-01T21:22:28.655Z,96130.89
2019-06-01T21:25:16.680Z,96129.85
2019-06-01T21:28:04.376Z,96127.86
2019-06-01T21:30:53.016Z,96125.50
2019-06-01T21:33:41.137Z,96126.45
2019-06-01T21:36:28.547Z,96125.40
2019-06-01T21:39:17.427Z,96124.44
2019-06-01T21:42:05.701Z,96125.00
2019-06-01T21:44:53.163Z,96125.55
2019-06-01T21:47:41.017Z,96128.09
2019-06-01T21:50:28.409Z,96131.80
2019-06-01T21:53:17.952Z,96124.70
2019-06-01T21:56:06.245Z,96129.36
2019-06-01T21:58:53.515Z,96124.66
2019-06-01T22:01:40.958Z,96123.84
2019-06-01T22:04:29.047Z,96122.78
2019-06-01T22:07:17.409Z,96127.35
2019-06-01T22:10:05.105Z,96128.31
2019-06-01T22:12:52.728Z,96124.02
2019-06-01T22:15:40.222Z,96118.60
2019-06-01T22:18:28.025Z,96120.47
2019-06-01T22:21:15.305Z,96115.85
2019-06-01T22:24:02.604Z,96112.40
2019-06-01T22:26:50.273Z,96116.19
2019-06-01T22:29:38.657Z,96119.64
2019-06-01T22:32:29.242Z,96112.38
2019-06-01T22:35:15.076Z,96114.98
2019-06-01T22:38:02.683Z,96113.01
2019-06-01T22:40:50.559Z,96114.86
2019-06-01T22:43:46.093Z,96113.03
2019-06-01T22:46:26.891Z,96118.17
2019-06-01T22:49:14.398Z,96116.02
2019-06-01T22:52:01.605Z,96118.80
2019-06-01T22:54:49.277Z,96116.80
2019-06-01T22:57:37.566Z,96115.16
2019-06-01T23:00:25.865Z,96115.38
2019-06-01T23:03:14.582Z,96112.17
2019-06-01T23:06:02.065Z,96110.30
2019-06-01T23:08:49.880Z,96109.95
2019-06-01T23:11:37.256Z,96107.17
2019-06-01T23:14:25.282Z,96105.09
2019-06-01T23:17:12.942Z,96108.22
2019-06-01T23:20:00.589Z,96104.21
2019-06-01T23:22:47.691Z,96106.64
2019-06-01T23:25:35.057Z,96103.16
2019-06-01T23:28:24.053Z,96099.77
2019-06-01T23:31:11.644Z,96104.53
2019-06-01T23:33:58.964Z,96098.64
2019-06-01T23:36:46.385Z,96097.08
2019-06-01T23:39:36.243Z,96098.60
2019-06-01T23:42:24.546Z,96096.77
2019-06-01T23:45:12.250Z,96095.19
2019-06-01T23:47:59.976Z,96097.00
2019-06-01T23:50:47.062Z,96094.67
2019-06-01T23:53:35.003Z,96087.61
2019-06-01T23:56:23.623Z,96087.81
2019-06-01T23:59:11.134Z,96085.07
